Time;durP1;ratioP1;P1;durP2;ratioP2;P2;SDS_P1;SDS_P2;PMS_P1;PMS_P2;Temp;Humidity;BMP_temperature;BMP_pressure;BME280_temperature;BME280_humidity;BME280_pressure;Samples;Min_cycle;Max_cycle;Signal;HPM_P1;HPM_P2
2023/10/31 00:00:45;;;;;;;12.90;11.80;;;13.00;99.90;;;;;;5054350;28;20453;-70
2023/10/31 00:03:13;;;;;;;12.50;11.40;;;13.00;99.90;;;;;;5054436;28;20434;-70
2023/10/31 00:05:41;;;;;;;12.77;11.73;;;13.00;99.90;;;;;;5054159;28;20473;-71
2023/10/31 00:08:09;;;;;;;13.43;12.20;;;13.00;99.90;;;;;;5054107;28;20863;-70
2023/10/31 00:10:37;;;;;;;14.60;12.67;;;13.00;99.90;;;;;;5054404;28;20434;-70
2023/10/31 00:13:05;;;;;;;12.77;11.67;;;13.00;99.90;;;;;;5054235;28;20474;-70
2023/10/31 00:16:25;;;;;;;12.60;11.60;;;13.00;99.90;;;;;;5037629;28;20994;-78
2023/10/31 00:18:54;;;;;;;13.43;12.13;;;13.00;99.90;;;;;;5053771;28;20978;-72
2023/10/31 00:21:23;;;;;;;12.87;11.77;;;13.00;99.90;;;;;;5053898;28;20442;-72
2023/10/31 00:23:51;;;;;;;15.20;13.07;;;13.00;99.90;;;;;;5054333;28;20434;-72
2023/10/31 00:26:19;;;;;;;12.80;11.67;;;13.00;99.90;;;;;;5053674;28;20975;-72
2023/10/31 00:28:53;;;;;;;13.33;12.13;;;13.00;99.90;;;;;;5036093;28;21040;-71
2023/10/31 00:31:22;;;;;;;14.10;12.80;;;13.00;99.90;;;;;;5052651;28;20947;-72
2023/10/31 00:33:50;;;;;;;15.07;13.77;;;13.00;99.90;;;;;;5055022;28;20528;-72
2023/10/31 00:36:19;;;;;;;13.90;12.60;;;13.00;99.90;;;;;;5052400;28;20458;-72
2023/10/31 00:38:47;;;;;;;14.10;12.87;;;13.00;99.90;;;;;;5053188;28;20457;-72
2023/10/31 00:41:16;;;;;;;13.50;12.20;;;13.00;99.90;;;;;;5054257;28;20438;-72
2023/10/31 00:43:44;;;;;;;13.40;12.23;;;13.00;99.90;;;;;;5054256;28;20946;-72
2023/10/31 00:46:12;;;;;;;13.70;12.50;;;13.00;99.90;;;;;;5053082;28;20469;-72
2023/10/31 00:48:40;;;;;;;14.87;13.53;;;13.00;99.90;;;;;;5053498;28;20902;-71
2023/10/31 00:51:08;;;;;;;15.00;13.60;;;13.00;99.90;;;;;;5039454;28;20545;-72
2023/10/31 00:53:37;;;;;;;13.83;12.07;;;13.00;99.90;;;;;;5057514;28;20442;-72
2023/10/31 00:56:06;;;;;;;12.60;11.50;;;13.00;99.90;;;;;;5056092;28;20456;-69
2023/10/31 00:58:34;;;;;;;13.50;12.30;;;13.00;99.90;;;;;;5039487;28;20462;-69
2023/10/31 01:01:02;;;;;;;14.13;12.93;;;13.00;99.90;;;;;;5057148;28;20438;-69
2023/10/31 01:03:30;;;;;;;12.47;11.33;;;13.00;99.90;;;;;;5057762;28;20521;-71
2023/10/31 01:05:59;;;;;;;13.50;12.30;;;13.00;99.90;;;;;;5057261;28;20993;-70
2023/10/31 01:08:27;;;;;;;12.23;11.13;;;13.00;99.90;;;;;;5056015;28;20464;-70
2023/10/31 01:10:56;;;;;;;11.40;10.40;;;13.00;99.90;;;;;;5038798;28;20491;-70
2023/10/31 01:13:24;;;;;;;13.30;12.03;;;13.00;99.90;;;;;;5038320;28;20445;-69
2023/10/31 01:15:52;;;;;;;12.80;11.73;;;13.00;99.90;;;;;;5054623;28;20946;-70
2023/10/31 01:18:20;;;;;;;12.60;11.47;;;13.00;99.90;;;;;;5056083;28;20465;-70
2023/10/31 01:20:48;;;;;;;11.17;10.17;;;13.00;99.90;;;;;;5056152;28;20928;-70
2023/10/31 01:23:17;;;;;;;13.03;11.90;;;13.00;99.90;;;;;;5054746;28;20993;-70
2023/10/31 01:25:45;;;;;;;11.73;10.73;;;13.00;99.90;;;;;;5055226;28;20565;-70
2023/10/31 01:28:14;;;;;;;12.30;11.20;;;13.00;99.90;;;;;;5037986;28;20843;-70
2023/10/31 01:30:42;;;;;;;12.03;10.93;;;13.00;99.90;;;;;;5055782;28;20932;-70
2023/10/31 01:33:10;;;;;;;12.00;11.00;;;13.00;99.90;;;;;;5055783;28;20465;-70
2023/10/31 01:35:39;;;;;;;10.10;9.10;;;13.00;99.90;;;;;;5055663;28;20452;-70
2023/10/31 01:38:07;;;;;;;10.83;9.93;;;13.00;99.90;;;;;;5038159;28;20466;-70
2023/10/31 01:40:35;;;;;;;11.87;10.77;;;13.00;99.90;;;;;;5038281;28;20476;-70
2023/10/31 01:43:03;;;;;;;10.53;9.53;;;13.00;99.90;;;;;;5055683;28;20520;-70
2023/10/31 01:45:32;;;;;;;10.87;9.97;;;13.00;99.90;;;;;;5057140;28;20466;-70
2023/10/31 01:48:01;;;;;;;12.13;11.03;;;13.00;99.90;;;;;;5056978;28;20458;-70
2023/10/31 01:50:29;;;;;;;11.80;10.70;;;13.00;99.90;;;;;;5038982;28;20450;-70
2023/10/31 01:52:57;;;;;;;12.27;11.17;;;13.00;99.90;;;;;;5055861;28;20758;-70
2023/10/31 01:55:27;;;;;;;11.20;10.20;;;13.00;99.90;;;;;;5055439;28;20453;-70
2023/10/31 01:57:55;;;;;;;11.70;10.70;;;13.00;99.90;;;;;;5057009;28;20468;-69
2023/10/31 02:00:24;;;;;;;11.87;10.80;;;13.00;99.90;;;;;;5038200;28;20529;-70
2023/10/31 02:02:55;;;;;;;12.43;11.27;;;13.00;99.90;;;;;;5056982;28;20438;-70
2023/10/31 02:05:23;;;;;;;11.97;10.97;;;13.00;99.90;;;;;;5056089;28;20481;-70
2023/10/31 02:07:52;;;;;;;11.37;10.27;;;13.00;99.90;;;;;;5036887;28;20520;-70
2023/10/31 02:10:20;;;;;;;11.50;10.50;;;13.00;99.90;;;;;;5055339;28;20438;-70
2023/10/31 02:12:48;;;;;;;12.00;10.90;;;13.00;99.90;;;;;;5053832;28;20457;-70
2023/10/31 02:15:16;;;;;;;12.80;11.60;;;13.00;99.90;;;;;;5053714;28;20438;-70
2023/10/31 02:17:44;;;;;;;12.97;11.77;;;13.00;99.90;;;;;;5037177;28;20454;-70
2023/10/31 02:20:14;;;;;;;13.43;12.23;;;13.00;99.90;;;;;;5055467;28;20466;-70
2023/10/31 02:22:43;;;;;;;13.50;12.30;;;13.00;99.90;;;;;;5055132;28;20430;-70
2023/10/31 02:25:18;;;;;;;13.87;12.57;;;13.00;99.90;;;;;;5038725;28;20442;-70
2023/10/31 02:27:46;;;;;;;12.90;11.80;;;13.00;99.90;;;;;;5056526;28;20442;-70
2023/10/31 02:30:15;;;;;;;14.33;12.93;;;13.00;99.90;;;;;;5055818;28;20434;-70
2023/10/31 02:32:43;;;;;;;14.10;12.80;;;13.00;99.90;;;;;;5038173;28;20458;-70
2023/10/31 02:35:12;;;;;;;12.93;11.73;;;13.00;99.90;;;;;;5037904;28;20524;-70
2023/10/31 02:37:40;;;;;;;14.47;13.03;;;13.00;99.90;;;;;;5055771;28;20433;-70
2023/10/31 02:40:10;;;;;;;14.87;13.47;;;13.00;99.90;;;;;;5054659;28;20454;-70
2023/10/31 02:42:38;;;;;;;16.10;14.50;;;13.00;99.90;;;;;;5038290;28;20492;-70
2023/10/31 02:45:07;;;;;;;15.27;13.63;;;13.00;99.90;;;;;;5056472;28;20525;-70
2023/10/31 02:47:36;;;;;;;15.63;14.13;;;13.00;99.90;;;;;;5038341;28;20979;-70
2023/10/31 02:50:04;;;;;;;15.43;13.97;;;13.00;99.90;;;;;;5056551;28;20856;-70
2023/10/31 02:52:32;;;;;;;17.90;16.20;;;13.00;99.90;;;;;;5056997;28;20969;-70
2023/10/31 02:55:01;;;;;;;17.17;15.50;;;13.00;99.90;;;;;;5055236;28;20446;-70
2023/10/31 02:57:30;;;;;;;18.90;16.93;;;13.00;99.90;;;;;;5057351;28;20529;-69
2023/10/31 02:59:58;;;;;;;17.33;15.50;;;13.00;99.90;;;;;;5055914;28;20531;-70
2023/10/31 03:02:26;;;;;;;19.70;16.03;;;13.00;99.90;;;;;;5053302;28;20446;-70
2023/10/31 03:04:55;;;;;;;19.20;17.20;;;13.00;99.90;;;;;;5036997;28;20453;-70
2023/10/31 03:07:23;;;;;;;20.00;18.00;;;13.00;99.90;;;;;;5054470;28;20828;-70
2023/10/31 03:09:51;;;;;;;18.83;16.90;;;13.00;99.90;;;;;;5054338;28;20556;-69
2023/10/31 03:12:19;;;;;;;22.33;17.30;;;13.00;99.90;;;;;;5052196;28;20884;-70
2023/10/31 03:14:49;;;;;;;18.60;16.70;;;13.00;99.90;;;;;;5054270;28;20435;-70
2023/10/31 03:17:17;;;;;;;20.10;17.93;;;13.00;99.90;;;;;;5053177;28;20469;-70
2023/10/31 03:19:45;;;;;;;21.83;18.60;;;13.00;99.90;;;;;;5052799;28;20474;-70
2023/10/31 03:22:14;;;;;;;20.33;17.57;;;13.00;99.90;;;;;;5054714;28;20441;-70
2023/10/31 03:24:42;;;;;;;21.80;17.80;;;13.00;99.90;;;;;;5054072;28;20434;-70
2023/10/31 03:27:10;;;;;;;22.83;19.30;;;13.00;99.90;;;;;;5036356;28;20498;-70
2023/10/31 03:29:38;;;;;;;24.50;19.97;;;13.00;99.90;;;;;;5054101;28;20500;-70
2023/10/31 03:32:09;;;;;;;21.63;18.60;;;13.00;99.90;;;;;;5035955;28;20940;-70
2023/10/31 03:34:38;;;;;;;22.87;20.03;;;13.00;99.90;;;;;;5053979;28;20787;-70
2023/10/31 03:37:06;;;;;;;24.03;20.30;;;13.10;99.90;;;;;;5052525;28;20516;-70
2023/10/31 03:39:34;;;;;;;25.00;20.20;;;13.10;99.90;;;;;;5054017;28;20534;-70
2023/10/31 03:42:02;;;;;;;23.40;19.30;;;13.10;99.90;;;;;;5053999;28;20521;-70
2023/10/31 03:44:30;;;;;;;24.47;20.27;;;13.10;99.90;;;;;;5052503;28;20442;-70
2023/10/31 03:46:58;;;;;;;24.13;19.90;;;13.10;99.90;;;;;;5052734;28;20493;-70
2023/10/31 03:49:28;;;;;;;25.70;19.80;;;13.10;99.90;;;;;;5036264;28;20491;-70
2023/10/31 03:51:56;;;;;;;27.40;20.40;;;13.10;99.90;;;;;;5053991;28;21018;-70
2023/10/31 03:54:24;;;;;;;25.50;20.87;;;13.10;99.90;;;;;;5053857;28;20464;-70
2023/10/31 03:56:52;;;;;;;24.30;20.57;;;13.10;99.90;;;;;;5052447;28;20533;-70
2023/10/31 03:59:20;;;;;;;21.47;19.17;;;13.10;99.90;;;;;;5054162;28;20469;-70
2023/10/31 04:01:49;;;;;;;22.60;19.67;;;13.10;99.90;;;;;;5052440;28;20453;-69
2023/10/31 04:04:17;;;;;;;23.47;19.00;;;13.10;99.90;;;;;;5052335;28;20446;-70
2023/10/31 04:06:47;;;;;;;21.63;18.93;;;13.10;99.90;;;;;;5053351;28;20476;-70
2023/10/31 04:09:15;;;;;;;23.07;20.07;;;13.10;99.90;;;;;;5035441;28;20986;-69
2023/10/31 04:11:43;;;;;;;22.40;19.07;;;13.10;99.90;;;;;;5052446;28;20481;-70
2023/10/31 04:14:11;;;;;;;27.47;21.80;;;13.10;99.90;;;;;;5052264;28;20442;-70
2023/10/31 04:16:45;;;;;;;29.03;24.97;;;13.10;99.90;;;;;;5052217;28;20445;-70
2023/10/31 04:19:13;;;;;;;24.17;19.87;;;13.10;99.90;;;;;;5053311;28;20457;-70
2023/10/31 04:21:42;;;;;;;27.77;22.73;;;13.10;99.90;;;;;;5053928;28;20462;-70
2023/10/31 04:24:11;;;;;;;23.90;19.33;;;13.10;99.90;;;;;;5056215;28;20949;-70
2023/10/31 04:26:40;;;;;;;23.63;19.20;;;13.10;99.90;;;;;;5055859;28;20537;-70
2023/10/31 04:29:08;;;;;;;21.80;17.53;;;13.10;99.90;;;;;;5057457;28;20489;-70
2023/10/31 04:31:37;;;;;;;21.33;18.37;;;13.10;99.90;;;;;;5055870;28;20863;-70
2023/10/31 04:34:11;;;;;;;22.50;19.37;;;13.10;99.90;;;;;;5039181;28;20474;-70
2023/10/31 04:36:39;;;;;;;22.10;18.90;;;13.10;99.90;;;;;;5057341;28;20454;-70
2023/10/31 04:39:07;;;;;;;22.07;18.97;;;13.10;99.90;;;;;;5057101;28;21036;-70
2023/10/31 04:41:37;;;;;;;23.83;21.33;;;13.10;99.90;;;;;;5056882;28;20438;-70
2023/10/31 04:44:06;;;;;;;23.07;20.50;;;13.10;99.90;;;;;;5056877;28;20949;-70
2023/10/31 04:46:34;;;;;;;23.40;20.70;;;13.10;99.90;;;;;;5038920;28;20442;-70
2023/10/31 04:49:03;;;;;;;25.57;22.87;;;13.10;99.90;;;;;;5056655;28;20532;-69
2023/10/31 04:51:34;;;;;;;25.17;22.50;;;13.10;99.90;;;;;;5056883;28;20438;-70
2023/10/31 04:54:02;;;;;;;27.20;22.83;;;13.10;99.90;;;;;;5056927;28;20454;-70
2023/10/31 04:56:30;;;;;;;24.10;21.60;;;13.10;99.90;;;;;;5056697;28;20492;-70
2023/10/31 04:59:00;;;;;;;24.90;22.33;;;13.10;99.90;;;;;;5056518;28;20442;-70
2023/10/31 05:01:28;;;;;;;25.03;22.33;;;13.10;99.90;;;;;;5056486;28;20465;-70
2023/10/31 05:03:56;;;;;;;24.97;22.37;;;13.10;99.90;;;;;;5057182;28;20431;-70
2023/10/31 05:06:37;;;;;;;24.87;22.00;;;13.00;99.90;;;;;;5055602;28;20442;-69
2023/10/31 05:09:06;;;;;;;24.10;21.60;;;13.00;99.90;;;;;;5056374;28;21046;-70
2023/10/31 05:11:34;;;;;;;26.23;23.43;;;13.00;99.90;;;;;;5056919;28;20430;-70
2023/10/31 05:14:04;;;;;;;24.33;21.83;;;13.00;99.90;;;;;;5056338;28;20801;-70
2023/10/31 05:16:32;;;;;;;18.90;16.87;;;13.00;99.90;;;;;;5056330;28;20434;-70
2023/10/31 05:19:04;;;;;;;23.63;21.27;;;13.00;99.90;;;;;;5056298;28;20460;-70
2023/10/31 05:21:32;;;;;;;22.33;20.03;;;12.90;99.90;;;;;;5056693;28;20419;-71
2023/10/31 05:24:00;;;;;;;21.03;18.93;;;12.90;99.90;;;;;;5057328;28;20438;-70
2023/10/31 05:26:29;;;;;;;20.63;18.70;;;12.90;99.90;;;;;;5055359;28;20484;-70
2023/10/31 05:28:58;;;;;;;17.80;16.00;;;12.90;99.90;;;;;;5056569;28;21008;-69
2023/10/31 05:31:27;;;;;;;11.53;10.43;;;12.90;99.90;;;;;;5056344;28;20927;-70
2023/10/31 05:33:55;;;;;;;6.50;5.90;;;12.80;99.90;;;;;;5056462;28;20536;-70
2023/10/31 05:36:25;;;;;;;4.90;4.50;;;12.70;99.90;;;;;;5055277;28;20837;-69
2023/10/31 05:38:53;;;;;;;4.77;3.70;;;12.60;99.90;;;;;;5056067;28;20967;-70
2023/10/31 05:41:22;;;;;;;2.70;2.50;;;12.50;99.90;;;;;;5056014;28;20450;-71
2023/10/31 05:43:50;;;;;;;2.50;2.30;;;12.40;99.90;;;;;;5056715;28;20440;-70
2023/10/31 05:46:18;;;;;;;2.17;1.87;;;12.30;99.90;;;;;;5039183;28;20447;-70
2023/10/31 05:48:48;;;;;;;2.00;1.80;;;12.30;99.90;;;;;;5039359;28;21049;-70
2023/10/31 05:51:18;;;;;;;2.13;1.67;;;12.10;99.90;;;;;;5038840;28;20517;-70
2023/10/31 05:53:48;;;;;;;1.87;1.70;;;12.10;99.90;;;;;;5057210;28;20442;-70
2023/10/31 05:56:17;;;;;;;1.70;1.50;;;12.00;99.90;;;;;;5055816;28;20521;-70
2023/10/31 05:58:45;;;;;;;1.90;1.53;;;11.90;99.90;;;;;;5056303;28;20959;-70
2023/10/31 06:01:13;;;;;;;1.93;1.40;;;11.90;99.90;;;;;;5055838;28;20949;-70
2023/10/31 06:03:43;;;;;;;1.93;1.60;;;11.80;99.90;;;;;;5055382;28;20446;-70
2023/10/31 06:06:13;;;;;;;1.70;1.60;;;11.70;99.90;;;;;;5055547;28;20480;-70
2023/10/31 06:08:42;;;;;;;3.03;2.23;;;11.70;99.90;;;;;;5055158;28;20485;-70
2023/10/31 06:11:12;;;;;;;3.20;2.00;;;11.70;99.90;;;;;;5055179;28;20462;-70
2023/10/31 06:13:41;;;;;;;3.17;2.30;;;11.60;99.90;;;;;;5055252;28;20520;-70
2023/10/31 06:16:09;;;;;;;2.60;2.40;;;11.60;99.90;;;;;;5055585;28;20448;-70
2023/10/31 06:18:39;;;;;;;2.43;2.20;;;11.50;99.90;;;;;;5055328;28;20454;-70
2023/10/31 06:21:08;;;;;;;2.80;2.60;;;11.50;99.90;;;;;;5055217;28;20438;-70
2023/10/31 06:23:39;;;;;;;2.53;2.10;;;11.50;99.90;;;;;;5036874;28;20454;-70
2023/10/31 06:26:07;;;;;;;2.23;1.90;;;11.50;99.90;;;;;;5037143;28;20955;-70
2023/10/31 06:28:36;;;;;;;2.47;1.60;;;11.50;99.90;;;;;;5055046;28;20478;-70
2023/10/31 06:31:12;;;;;;;3.60;2.00;;;11.40;99.90;;;;;;5054923;28;20426;-70
2023/10/31 06:33:41;;;;;;;2.97;2.30;;;11.40;99.90;;;;;;5054595;28;20434;-70
2023/10/31 06:36:09;;;;;;;2.90;1.90;;;11.40;99.90;;;;;;5036819;28;20450;-70
2023/10/31 06:38:39;;;;;;;2.50;1.70;;;11.30;99.90;;;;;;5054724;28;20488;-70
2023/10/31 06:41:07;;;;;;;2.83;1.70;;;11.30;99.90;;;;;;5053289;28;20438;-70
2023/10/31 06:43:35;;;;;;;3.07;1.90;;;11.30;99.90;;;;;;5054402;28;20444;-70
2023/10/31 06:46:05;;;;;;;2.70;1.70;;;11.30;99.90;;;;;;5055324;28;20438;-70
2023/10/31 06:48:33;;;;;;;2.10;1.60;;;11.30;99.90;;;;;;5054565;28;20561;-70
2023/10/31 06:51:01;;;;;;;1.97;1.57;;;11.20;99.90;;;;;;5036917;28;20500;-70
2023/10/31 06:53:29;;;;;;;3.00;1.70;;;11.20;99.90;;;;;;5054708;28;20793;-70
2023/10/31 06:55:58;;;;;;;2.07;1.73;;;11.20;99.90;;;;;;5054792;28;20525;-70
2023/10/31 06:58:26;;;;;;;3.20;1.70;;;11.20;99.90;;;;;;5055351;28;20469;-70
2023/10/31 07:00:55;;;;;;;2.20;1.83;;;11.20;99.90;;;;;;5054975;28;20442;-70
2023/10/31 07:03:23;;;;;;;2.50;1.60;;;11.20;99.90;;;;;;5055307;28;20434;-70
2023/10/31 07:05:51;;;;;;;2.53;1.60;;;11.10;99.90;;;;;;5054931;28;20462;-70
2023/10/31 07:08:19;;;;;;;3.27;1.90;;;11.10;99.90;;;;;;5037399;28;20477;-70
2023/10/31 07:10:47;;;;;;;4.40;2.10;;;11.10;99.90;;;;;;5054837;28;20477;-70
2023/10/31 07:13:17;;;;;;;3.07;2.50;;;11.10;99.90;;;;;;5054602;28;20433;-70
2023/10/31 07:15:46;;;;;;;2.33;2.00;;;11.10;99.90;;;;;;5055215;28;20434;-70
2023/10/31 07:18:14;;;;;;;2.67;1.87;;;11.10;99.90;;;;;;5054611;28;20458;-70
2023/10/31 07:20:42;;;;;;;2.37;2.17;;;11.10;99.90;;;;;;5036648;28;20541;-70
2023/10/31 07:23:11;;;;;;;3.67;1.80;;;11.10;99.90;;;;;;5054997;28;20442;-70
2023/10/31 07:25:39;;;;;;;2.87;2.07;;;11.20;99.90;;;;;;5054636;28;20465;-70
2023/10/31 07:28:07;;;;;;;2.57;1.67;;;11.20;99.90;;;;;;5054453;28;20497;-70
2023/10/31 07:30:36;;;;;;;3.40;1.83;;;11.10;99.90;;;;;;5054676;28;20529;-70
2023/10/31 07:33:05;;;;;;;5.50;2.00;;;11.20;99.90;;;;;;5036497;28;20862;-70
2023/10/31 07:35:33;;;;;;;2.60;2.00;;;11.10;99.90;;;;;;5053874;28;20446;-70
2023/10/31 07:38:01;;;;;;;2.33;1.80;;;11.10;99.90;;;;;;5054803;28;21014;-70
2023/10/31 07:40:29;;;;;;;3.13;2.17;;;11.10;99.90;;;;;;5054595;28;20495;-70
2023/10/31 07:42:57;;;;;;;2.10;1.70;;;11.10;99.90;;;;;;5054754;28;20471;-70
2023/10/31 07:45:25;;;;;;;2.53;1.87;;;11.10;99.90;;;;;;5036927;28;20445;-70
2023/10/31 07:47:55;;;;;;;3.30;1.83;;;11.10;99.90;;;;;;5053466;28;21058;-70
2023/10/31 07:50:23;;;;;;;1.70;1.33;;;11.10;99.90;;;;;;5035374;28;20474;-70
2023/10/31 07:52:51;;;;;;;2.27;1.60;;;11.10;99.90;;;;;;5053377;28;20430;-70
2023/10/31 07:55:19;;;;;;;2.47;1.33;;;11.10;99.90;;;;;;5054086;28;20434;-70
2023/10/31 07:57:47;;;;;;;2.40;1.20;;;11.10;99.90;;;;;;5054026;28;21012;-70
2023/10/31 08:00:16;;;;;;;2.20;1.13;;;11.10;99.90;;;;;;5057476;28;20539;-70
2023/10/31 08:02:44;;;;;;;4.50;1.33;;;11.10;99.90;;;;;;5057390;28;20438;-70
2023/10/31 08:05:13;;;;;;;3.27;1.40;;;11.10;99.90;;;;;;5057604;28;20852;-70
2023/10/31 08:07:41;;;;;;;2.40;1.10;;;11.10;99.90;;;;;;5057549;28;20548;-70
2023/10/31 08:10:10;;;;;;;3.13;1.80;;;11.10;99.90;;;;;;5057499;28;20852;-69
2023/10/31 08:12:38;;;;;;;1.80;1.50;;;11.10;99.90;;;;;;5057544;28;20541;-70
2023/10/31 08:15:07;;;;;;;2.90;1.63;;;11.10;99.90;;;;;;5057681;28;20437;-70
2023/10/31 08:17:35;;;;;;;2.00;1.50;;;11.10;99.90;;;;;;5039413;28;20444;-70
2023/10/31 08:20:04;;;;;;;2.00;1.43;;;11.10;99.90;;;;;;5057484;28;20462;-70
2023/10/31 08:22:33;;;;;;;1.77;1.20;;;11.10;99.90;;;;;;5057248;28;20848;-70
2023/10/31 08:25:01;;;;;;;2.20;1.27;;;11.20;99.90;;;;;;5057992;28;20465;-70
2023/10/31 08:27:30;;;;;;;2.17;1.30;;;11.20;99.90;;;;;;5057699;28;20864;-70
2023/10/31 08:29:58;;;;;;;1.90;1.40;;;11.20;99.90;;;;;;5039338;28;20473;-70
2023/10/31 08:32:26;;;;;;;1.77;1.30;;;11.20;99.90;;;;;;5057654;28;20524;-70
2023/10/31 08:34:56;;;;;;;1.83;1.13;;;11.20;99.90;;;;;;5057070;28;20438;-70
2023/10/31 08:37:24;;;;;;;2.50;1.40;;;11.20;99.90;;;;;;5039574;28;20482;-70
2023/10/31 08:39:53;;;;;;;1.17;0.83;;;11.20;99.90;;;;;;5039409;28;20557;-70
2023/10/31 08:42:21;;;;;;;1.43;0.93;;;11.20;99.90;;;;;;5057139;28;20469;-70
2023/10/31 08:44:49;;;;;;;2.20;1.20;;;11.20;99.90;;;;;;5057221;28;20528;-70
2023/10/31 08:47:18;;;;;;;1.53;0.97;;;11.20;99.90;;;;;;5057008;28;20433;-70
2023/10/31 08:49:46;;;;;;;2.40;1.23;;;11.20;99.90;;;;;;5056701;28;20469;-70
2023/10/31 08:52:14;;;;;;;2.33;1.50;;;11.20;99.90;;;;;;5057192;28;20549;-70
2023/10/31 08:54:42;;;;;;;2.37;1.40;;;11.20;99.90;;;;;;5057275;28;20466;-70
2023/10/31 08:57:12;;;;;;;1.53;1.40;;;11.30;99.90;;;;;;5057032;28;20440;-70
2023/10/31 08:59:40;;;;;;;2.53;1.80;;;11.30;99.90;;;;;;5056844;28;20449;-70
2023/10/31 09:02:08;;;;;;;2.73;2.03;;;11.30;99.90;;;;;;5038958;28;20450;-70
2023/10/31 09:04:36;;;;;;;2.17;1.47;;;11.30;99.90;;;;;;5056523;28;20517;-70
2023/10/31 09:07:05;;;;;;;2.00;1.57;;;11.30;99.90;;;;;;5056904;28;20532;-70
2023/10/31 09:09:33;;;;;;;3.30;2.10;;;11.30;99.90;;;;;;5058191;28;20827;-71
2023/10/31 09:12:01;;;;;;;2.20;2.00;;;11.30;99.90;;;;;;5058275;28;20501;-70
2023/10/31 09:14:30;;;;;;;2.37;1.90;;;11.30;99.90;;;;;;5058359;28;20963;-70
2023/10/31 09:16:58;;;;;;;3.83;2.20;;;11.30;99.90;;;;;;5057744;28;20436;-70
2023/10/31 09:19:26;;;;;;;2.60;2.40;;;11.30;99.90;;;;;;5057073;28;20458;-70
2023/10/31 09:21:56;;;;;;;3.83;2.80;;;11.30;99.90;;;;;;5056906;28;20480;-70
2023/10/31 09:24:24;;;;;;;2.30;2.10;;;11.40;99.90;;;;;;5056620;28;20536;-70
2023/10/31 09:26:52;;;;;;;4.17;3.07;;;11.40;99.90;;;;;;5056235;28;20434;-70
2023/10/31 09:29:20;;;;;;;3.80;2.67;;;11.40;99.90;;;;;;5055865;28;20504;-70
2023/10/31 09:31:59;;;;;;;3.67;2.40;;;11.40;99.90;;;;;;5056078;28;20929;-70
2023/10/31 09:34:27;;;;;;;3.70;3.20;;;11.40;99.90;;;;;;5056201;28;20473;-70
2023/10/31 09:36:55;;;;;;;3.90;3.50;;;11.40;99.90;;;;;;5055425;28;20464;-70
2023/10/31 09:39:23;;;;;;;3.90;3.50;;;11.40;99.90;;;;;;5055591;28;20511;-70
2023/10/31 09:41:52;;;;;;;3.47;3.07;;;11.50;99.90;;;;;;5055985;28;20477;-70
2023/10/31 09:44:22;;;;;;;3.40;3.10;;;11.50;99.90;;;;;;5055633;28;20457;-70
2023/10/31 09:46:52;;;;;;;3.70;3.40;;;11.50;99.90;;;;;;5055702;28;20438;-70
2023/10/31 09:49:22;;;;;;;4.23;3.83;;;11.50;99.90;;;;;;5055345;28;20466;-70
2023/10/31 09:51:50;;;;;;;4.70;4.27;;;11.50;99.90;;;;;;5055416;28;20503;-70
2023/10/31 09:54:18;;;;;;;5.67;5.10;;;11.50;99.90;;;;;;5055720;28;20446;-70
2023/10/31 09:56:47;;;;;;;4.90;4.50;;;11.50;99.90;;;;;;5055382;28;20931;-70
2023/10/31 09:59:16;;;;;;;5.20;4.70;;;11.50;99.90;;;;;;5055675;28;20504;-70
2023/10/31 10:01:45;;;;;;;5.07;4.50;;;11.50;99.90;;;;;;5056002;28;20426;-70
2023/10/31 10:04:13;;;;;;;9.90;4.83;;;11.50;99.90;;;;;;5055728;28;20525;-70
2023/10/31 10:06:51;;;;;;;5.17;4.67;;;11.60;99.90;;;;;;5055465;28;20534;-70
2023/10/31 10:09:19;;;;;;;6.00;4.50;;;11.60;99.90;;;;;;5055418;28;20473;-70
2023/10/31 10:11:47;;;;;;;5.57;5.10;;;11.60;99.90;;;;;;5055561;28;20477;-70
2023/10/31 10:14:17;;;;;;;5.67;5.10;;;11.60;99.90;;;;;;5056410;28;20998;-70
2023/10/31 10:16:45;;;;;;;6.10;5.50;;;11.60;99.90;;;;;;5056157;28;20474;-70
2023/10/31 10:19:19;;;;;;;7.00;6.30;;;11.70;99.90;;;;;;5054611;28;20519;-70
2023/10/31 10:21:49;;;;;;;5.80;5.40;;;11.70;99.90;;;;;;5054727;28;20422;-70
2023/10/31 10:24:18;;;;;;;6.00;5.50;;;11.70;99.90;;;;;;5054515;28;20476;-70
2023/10/31 10:26:47;;;;;;;5.50;5.00;;;11.80;99.90;;;;;;5054352;28;20443;-70
2023/10/31 10:29:15;;;;;;;5.87;5.37;;;11.80;99.90;;;;;;5036525;28;20959;-70
2023/10/31 10:31:44;;;;;;;4.53;4.13;;;11.90;99.90;;;;;;5054175;28;20500;-69
2023/10/31 10:34:16;;;;;;;7.47;5.13;;;11.90;99.90;;;;;;5054171;28;20525;-70
2023/10/31 10:36:50;;;;;;;4.10;3.70;;;11.90;99.90;;;;;;5054272;28;20457;-70
2023/10/31 10:39:21;;;;;;;5.60;5.13;;;12.00;99.90;;;;;;5054111;28;20454;-70
2023/10/31 10:41:57;;;;;;;5.20;4.77;;;12.00;99.90;;;;;;5054136;28;20418;-70
2023/10/31 10:44:33;;;;;;;4.80;3.90;;;12.00;99.90;;;;;;5036661;28;20484;-70
2023/10/31 10:47:04;;;;;;;8.57;7.80;;;12.10;99.90;;;;;;5036154;28;20437;-70
2023/10/31 10:49:35;;;;;;;5.03;4.53;;;12.10;99.90;;;;;;5053906;28;20450;-70
2023/10/31 10:52:17;;;;;;;4.00;3.60;;;12.10;99.90;;;;;;5036236;28;20539;-70
2023/10/31 10:54:49;;;;;;;4.93;4.43;;;12.10;99.90;;;;;;5054124;28;20509;-70
2023/10/31 10:57:25;;;;;;;4.27;3.97;;;12.10;99.90;;;;;;5054107;28;20414;-70
2023/10/31 10:59:59;;;;;;;5.17;4.57;;;12.10;99.90;;;;;;5053778;28;21078;-71
2023/10/31 11:02:28;;;;;;;5.00;4.50;;;12.10;99.90;;;;;;5053978;28;20418;-71
2023/10/31 11:04:58;;;;;;;5.33;4.60;;;12.10;99.90;;;;;;5053887;28;20484;-70
2023/10/31 11:07:30;;;;;;;6.93;4.10;;;12.10;99.90;;;;;;5035879;28;20473;-70
2023/10/31 11:10:01;;;;;;;5.23;4.47;;;12.10;99.90;;;;;;5035770;28;20529;-70
2023/10/31 11:12:31;;;;;;;4.70;4.27;;;12.10;99.90;;;;;;5054005;28;20838;-70
2023/10/31 11:15:01;;;;;;;4.90;4.00;;;12.20;99.90;;;;;;5053344;28;20434;-70
2023/10/31 11:17:32;;;;;;;4.10;3.70;;;12.20;99.90;;;;;;5053626;28;20525;-70
2023/10/31 11:20:00;;;;;;;4.53;3.60;;;12.20;99.90;;;;;;5053409;28;20425;-70
2023/10/31 11:22:40;;;;;;;3.77;3.40;;;12.20;99.90;;;;;;5053543;28;20443;-70
2023/10/31 11:25:09;;;;;;;3.23;2.90;;;12.20;99.90;;;;;;5053907;28;20421;-70
2023/10/31 11:27:50;;;;;;;5.93;3.37;;;12.30;99.90;;;;;;5053334;28;20906;-70
2023/10/31 11:30:23;;;;;;;4.23;3.07;;;12.30;99.90;;;;;;5053460;28;20477;-70
2023/10/31 11:32:53;;;;;;;5.50;3.57;;;12.30;99.90;;;;;;5052557;28;20465;-70
2023/10/31 11:35:23;;;;;;;4.87;3.70;;;12.30;99.90;;;;;;5053920;28;20518;-70
2023/10/31 11:38:02;;;;;;;4.57;3.77;;;12.30;99.90;;;;;;5053423;28;20888;-70
2023/10/31 11:40:30;;;;;;;4.60;3.53;;;12.30;99.90;;;;;;5053419;28;20436;-70
2023/10/31 11:43:05;;;;;;;3.40;3.00;;;12.40;99.90;;;;;;5053091;28;20503;-70
2023/10/31 11:45:36;;;;;;;3.90;3.37;;;12.40;99.90;;;;;;5053416;28;20421;-70
2023/10/31 11:48:05;;;;;;;4.27;3.87;;;12.40;99.90;;;;;;5035169;28;20466;-70
2023/10/31 11:50:34;;;;;;;4.43;3.20;;;12.40;99.90;;;;;;5053023;28;20438;-70
2023/10/31 11:53:06;;;;;;;4.50;3.17;;;12.40;99.90;;;;;;5035189;28;20966;-70
2023/10/31 11:55:36;;;;;;;3.63;3.10;;;12.40;99.90;;;;;;5053229;28;20435;-70
2023/10/31 11:58:18;;;;;;;4.37;2.60;;;12.40;99.90;;;;;;5053145;28;20450;-70
2023/10/31 12:00:47;;;;;;;3.87;2.77;;;12.40;99.90;;;;;;5053275;28;20809;-70
2023/10/31 12:03:17;;;;;;;4.63;3.33;;;12.40;99.90;;;;;;5053244;28;20468;-70
2023/10/31 12:05:56;;;;;;;10.47;4.20;;;12.50;99.90;;;;;;5052893;28;20442;-70
2023/10/31 12:08:30;;;;;;;4.27;3.10;;;12.50;99.90;;;;;;5035048;28;20497;-70
2023/10/31 12:11:09;;;;;;;4.90;3.60;;;12.50;99.90;;;;;;5052865;28;20460;-70
2023/10/31 12:13:38;;;;;;;3.27;2.70;;;12.50;99.90;;;;;;5053365;28;20417;-70
2023/10/31 12:16:08;;;;;;;4.67;3.10;;;12.50;99.90;;;;;;5053114;28;20935;-70
2023/10/31 12:18:38;;;;;;;4.10;2.47;;;12.50;99.90;;;;;;5053917;28;20470;-70
2023/10/31 12:21:08;;;;;;;4.90;2.70;;;12.50;99.90;;;;;;5053033;28;20473;-70
2023/10/31 12:23:38;;;;;;;3.87;2.73;;;12.50;99.90;;;;;;5053319;28;20529;-70
2023/10/31 12:26:06;;;;;;;3.30;2.10;;;12.60;99.90;;;;;;5052996;28;20470;-70
2023/10/31 12:28:37;;;;;;;2.37;1.23;;;12.50;99.90;;;;;;5052916;28;20454;-70
2023/10/31 12:31:07;;;;;;;1.47;1.00;;;12.50;99.90;;;;;;5052843;28;20457;-70
2023/10/31 12:33:35;;;;;;;1.87;1.00;;;12.50;99.90;;;;;;5052685;28;21015;-70
2023/10/31 12:36:04;;;;;;;4.03;1.00;;;12.40;99.90;;;;;;5052776;28;20490;-70
2023/10/31 12:38:32;;;;;;;3.70;1.43;;;12.30;99.90;;;;;;5052791;28;20454;-70
2023/10/31 12:41:02;;;;;;;3.30;1.70;;;12.30;99.90;;;;;;5052613;28;20442;-70
2023/10/31 12:43:30;;;;;;;4.43;2.00;;;12.30;99.90;;;;;;5052941;28;20920;-70
2023/10/31 12:45:58;;;;;;;3.63;1.60;;;12.20;99.90;;;;;;5056239;28;21001;-70
2023/10/31 12:48:27;;;;;;;3.40;1.40;;;12.10;99.90;;;;;;5056137;28;20453;-70